Terminal Aerodrome Forecast
Issued by NWS Portland, OR

Home | Current Version | Previous Version | Text Only | Print | Product List | Glossary On
Versions: 1 2 3 4 5 6 7 8 9 10 11 12 13 14 15 16
000
FTUS46 KPQR 251349 AAA
TAFEUG
TAF AMD
KEUG 251349Z 2514/2612 VRB05KT P6SM SKC
     FM251700 01010KT P6SM SKC
     FM252000 01013G20KT P6SM SKC
     FM260300 01010KT P6SM SKC
     FM260500 01007KT P6SM SKC=

USA.gov is the U.S. government's official web portal to all federal, state and local government web resources and services.